sensor_id;sensor_type;location;lat;lon;timestamp;P1;durP1;ratioP1;P2;durP2;ratioP2
29430;SDS011;16404;49.902;10.074;2023-12-22T00:01:23;12.10;;;2.05;;
29430;SDS011;16404;49.902;10.074;2023-12-22T00:04:08;11.13;;;2.67;;
29430;SDS011;16404;49.902;10.074;2023-12-22T00:06:53;9.25;;;1.88;;
29430;SDS011;16404;49.902;10.074;2023-12-22T00:09:38;5.07;;;1.80;;
29430;SDS011;16404;49.902;10.074;2023-12-22T00:12:23;10.23;;;1.73;;
29430;SDS011;16404;49.902;10.074;2023-12-22T00:15:07;7.68;;;1.70;;
29430;SDS011;16404;49.902;10.074;2023-12-22T00:17:52;12.23;;;1.90;;
29430;SDS011;16404;49.902;10.074;2023-12-22T00:20:36;8.32;;;1.83;;
29430;SDS011;16404;49.902;10.074;2023-12-22T00:23:21;14.40;;;1.90;;
29430;SDS011;16404;49.902;10.074;2023-12-22T00:26:05;12.20;;;1.88;;
29430;SDS011;16404;49.902;10.074;2023-12-22T00:28:50;7.82;;;1.55;;
29430;SDS011;16404;49.902;10.074;2023-12-22T00:31:34;9.65;;;1.63;;
29430;SDS011;16404;49.902;10.074;2023-12-22T00:34:19;9.27;;;1.80;;
29430;SDS011;16404;49.902;10.074;2023-12-22T00:37:05;7.32;;;1.70;;
29430;SDS011;16404;49.902;10.074;2023-12-22T00:39:50;11.52;;;1.80;;
29430;SDS011;16404;49.902;10.074;2023-12-22T00:42:34;8.93;;;1.75;;
29430;SDS011;16404;49.902;10.074;2023-12-22T00:45:19;11.73;;;1.77;;
29430;SDS011;16404;49.902;10.074;2023-12-22T00:48:03;10.25;;;2.08;;
29430;SDS011;16404;49.902;10.074;2023-12-22T00:50:48;10.63;;;1.65;;
29430;SDS011;16404;49.902;10.074;2023-12-22T00:53:33;8.85;;;1.83;;
29430;SDS011;16404;49.902;10.074;2023-12-22T00:56:17;9.50;;;1.50;;
29430;SDS011;16404;49.902;10.074;2023-12-22T00:59:02;6.03;;;1.30;;
29430;SDS011;16404;49.902;10.074;2023-12-22T01:01:46;6.90;;;1.33;;
29430;SDS011;16404;49.902;10.074;2023-12-22T01:04:31;5.47;;;1.75;;
29430;SDS011;16404;49.902;10.074;2023-12-22T01:07:16;9.15;;;1.48;;
29430;SDS011;16404;49.902;10.074;2023-12-22T01:10:02;5.97;;;1.15;;
29430;SDS011;16404;49.902;10.074;2023-12-22T01:12:48;11.13;;;1.63;;
29430;SDS011;16404;49.902;10.074;2023-12-22T01:15:32;9.80;;;2.13;;
29430;SDS011;16404;49.902;10.074;2023-12-22T01:18:17;4.70;;;1.00;;
29430;SDS011;16404;49.902;10.074;2023-12-22T01:21:02;5.88;;;1.40;;
29430;SDS011;16404;49.902;10.074;2023-12-22T01:23:46;5.15;;;1.30;;
29430;SDS011;16404;49.902;10.074;2023-12-22T01:26:31;4.85;;;1.10;;
29430;SDS011;16404;49.902;10.074;2023-12-22T01:29:15;7.28;;;1.60;;
29430;SDS011;16404;49.902;10.074;2023-12-22T01:32:00;3.28;;;1.00;;
29430;SDS011;16404;49.902;10.074;2023-12-22T01:34:45;3.83;;;0.90;;
29430;SDS011;16404;49.902;10.074;2023-12-22T01:37:29;6.43;;;1.65;;
29430;SDS011;16404;49.902;10.074;2023-12-22T01:40:14;3.40;;;0.90;;
29430;SDS011;16404;49.902;10.074;2023-12-22T01:42:59;3.75;;;0.90;;
29430;SDS011;16404;49.902;10.074;2023-12-22T01:45:44;1.55;;;0.85;;
29430;SDS011;16404;49.902;10.074;2023-12-22T01:48:29;2.45;;;0.73;;
29430;SDS011;16404;49.902;10.074;2023-12-22T01:53:59;3.10;;;0.70;;
29430;SDS011;16404;49.902;10.074;2023-12-22T01:59:29;2.75;;;0.98;;
29430;SDS011;16404;49.902;10.074;2023-12-22T02:02:18;2.40;;;0.60;;
29430;SDS011;16404;49.902;10.074;2023-12-22T02:05:02;2.72;;;0.98;;
29430;SDS011;16404;49.902;10.074;2023-12-22T02:07:48;4.35;;;0.70;;
29430;SDS011;16404;49.902;10.074;2023-12-22T02:10:33;2.53;;;0.80;;
29430;SDS011;16404;49.902;10.074;2023-12-22T02:13:17;3.15;;;1.02;;
29430;SDS011;16404;49.902;10.074;2023-12-22T02:16:06;1.50;;;0.60;;
29430;SDS011;16404;49.902;10.074;2023-12-22T02:19:55;1.88;;;0.60;;
29430;SDS011;16404;49.902;10.074;2023-12-22T02:22:22;1.45;;;0.80;;
29430;SDS011;16404;49.902;10.074;2023-12-22T02:25:07;1.15;;;0.60;;
29430;SDS011;16404;49.902;10.074;2023-12-22T02:27:57;4.18;;;0.77;;
29430;SDS011;16404;49.902;10.074;2023-12-22T02:33:44;0.75;;;0.50;;
29430;SDS011;16404;49.902;10.074;2023-12-22T02:36:31;3.22;;;0.50;;
29430;SDS011;16404;49.902;10.074;2023-12-22T02:39:19;3.08;;;0.70;;
29430;SDS011;16404;49.902;10.074;2023-12-22T02:42:04;2.03;;;0.65;;
29430;SDS011;16404;49.902;10.074;2023-12-22T02:47:34;0.93;;;0.52;;
29430;SDS011;16404;49.902;10.074;2023-12-22T02:50:19;2.72;;;0.70;;
29430;SDS011;16404;49.902;10.074;2023-12-22T02:53:03;1.80;;;0.70;;
29430;SDS011;16404;49.902;10.074;2023-12-22T02:55:48;4.22;;;0.68;;
29430;SDS011;16404;49.902;10.074;2023-12-22T02:58:33;3.30;;;0.80;;
29430;SDS011;16404;49.902;10.074;2023-12-22T03:01:17;3.92;;;0.88;;
29430;SDS011;16404;49.902;10.074;2023-12-22T03:04:02;4.95;;;0.75;;
29430;SDS011;16404;49.902;10.074;2023-12-22T03:06:46;7.63;;;0.90;;
29430;SDS011;16404;49.902;10.074;2023-12-22T03:09:31;2.17;;;0.68;;
29430;SDS011;16404;49.902;10.074;2023-12-22T03:15:00;3.25;;;0.77;;
29430;SDS011;16404;49.902;10.074;2023-12-22T03:17:45;9.27;;;1.10;;
29430;SDS011;16404;49.902;10.074;2023-12-22T03:20:29;6.00;;;1.27;;
29430;SDS011;16404;49.902;10.074;2023-12-22T03:23:14;8.02;;;1.00;;
29430;SDS011;16404;49.902;10.074;2023-12-22T03:26:02;5.57;;;1.40;;
29430;SDS011;16404;49.902;10.074;2023-12-22T03:28:47;8.80;;;1.15;;
29430;SDS011;16404;49.902;10.074;2023-12-22T03:31:31;3.45;;;0.80;;
29430;SDS011;16404;49.902;10.074;2023-12-22T03:34:16;5.85;;;1.17;;
29430;SDS011;16404;49.902;10.074;2023-12-22T03:37:01;2.72;;;0.90;;
29430;SDS011;16404;49.902;10.074;2023-12-22T03:39:45;5.72;;;0.82;;
29430;SDS011;16404;49.902;10.074;2023-12-22T03:42:30;7.10;;;1.10;;
29430;SDS011;16404;49.902;10.074;2023-12-22T03:45:14;4.22;;;0.70;;
29430;SDS011;16404;49.902;10.074;2023-12-22T03:47:59;3.40;;;1.15;;
29430;SDS011;16404;49.902;10.074;2023-12-22T03:50:43;6.22;;;0.95;;
29430;SDS011;16404;49.902;10.074;2023-12-22T03:53:28;4.63;;;1.17;;
29430;SDS011;16404;49.902;10.074;2023-12-22T03:56:13;3.78;;;0.70;;
29430;SDS011;16404;49.902;10.074;2023-12-22T03:58:57;2.67;;;0.73;;
29430;SDS011;16404;49.902;10.074;2023-12-22T04:01:42;3.00;;;0.77;;
29430;SDS011;16404;49.902;10.074;2023-12-22T04:04:27;4.18;;;0.98;;
29430;SDS011;16404;49.902;10.074;2023-12-22T04:07:12;1.20;;;0.55;;
29430;SDS011;16404;49.902;10.074;2023-12-22T04:09:56;3.05;;;0.85;;
29430;SDS011;16404;49.902;10.074;2023-12-22T04:12:41;5.70;;;1.10;;
29430;SDS011;16404;49.902;10.074;2023-12-22T04:15:25;2.35;;;0.80;;
29430;SDS011;16404;49.902;10.074;2023-12-22T04:18:10;1.58;;;0.77;;
29430;SDS011;16404;49.902;10.074;2023-12-22T04:20:55;3.53;;;0.77;;
29430;SDS011;16404;49.902;10.074;2023-12-22T04:23:39;3.38;;;0.80;;
29430;SDS011;16404;49.902;10.074;2023-12-22T04:26:24;4.20;;;0.73;;
29430;SDS011;16404;49.902;10.074;2023-12-22T04:29:08;3.17;;;1.00;;
29430;SDS011;16404;49.902;10.074;2023-12-22T04:31:53;3.72;;;1.20;;
29430;SDS011;16404;49.902;10.074;2023-12-22T04:34:38;3.38;;;0.80;;
29430;SDS011;16404;49.902;10.074;2023-12-22T04:37:22;5.95;;;0.85;;
29430;SDS011;16404;49.902;10.074;2023-12-22T04:40:08;3.45;;;0.63;;
29430;SDS011;16404;49.902;10.074;2023-12-22T04:45:37;2.50;;;0.65;;
29430;SDS011;16404;49.902;10.074;2023-12-22T04:48:22;2.15;;;0.80;;
29430;SDS011;16404;49.902;10.074;2023-12-22T04:51:06;1.67;;;0.60;;
29430;SDS011;16404;49.902;10.074;2023-12-22T04:53:51;1.65;;;0.57;;
29430;SDS011;16404;49.902;10.074;2023-12-22T04:56:35;1.00;;;0.50;;
29430;SDS011;16404;49.902;10.074;2023-12-22T04:59:20;4.53;;;0.77;;
29430;SDS011;16404;49.902;10.074;2023-12-22T05:02:05;2.17;;;0.50;;
29430;SDS011;16404;49.902;10.074;2023-12-22T05:04:50;2.92;;;0.73;;
29430;SDS011;16404;49.902;10.074;2023-12-22T05:07:34;2.47;;;0.93;;
29430;SDS011;16404;49.902;10.074;2023-12-22T05:10:19;3.72;;;0.80;;
29430;SDS011;16404;49.902;10.074;2023-12-22T05:13:04;3.55;;;0.70;;
29430;SDS011;16404;49.902;10.074;2023-12-22T05:15:48;2.25;;;0.60;;
29430;SDS011;16404;49.902;10.074;2023-12-22T05:18:33;2.08;;;0.60;;
29430;SDS011;16404;49.902;10.074;2023-12-22T05:21:17;3.58;;;0.90;;
29430;SDS011;16404;49.902;10.074;2023-12-22T05:24:02;2.63;;;0.60;;
29430;SDS011;16404;49.902;10.074;2023-12-22T05:26:47;3.15;;;0.60;;
29430;SDS011;16404;49.902;10.074;2023-12-22T05:29:32;2.92;;;0.60;;
29430;SDS011;16404;49.902;10.074;2023-12-22T05:32:16;3.88;;;0.60;;
29430;SDS011;16404;49.902;10.074;2023-12-22T05:35:01;1.60;;;0.63;;
29430;SDS011;16404;49.902;10.074;2023-12-22T05:37:46;1.20;;;0.60;;
29430;SDS011;16404;49.902;10.074;2023-12-22T05:40:31;0.30;;;0.30;;
29430;SDS011;16404;49.902;10.074;2023-12-22T05:43:16;0.57;;;0.40;;
29430;SDS011;16404;49.902;10.074;2023-12-22T05:46:00;0.95;;;0.57;;
29430;SDS011;16404;49.902;10.074;2023-12-22T05:48:45;0.63;;;0.52;;
29430;SDS011;16404;49.902;10.074;2023-12-22T05:51:35;0.47;;;0.40;;
29430;SDS011;16404;49.902;10.074;2023-12-22T05:54:23;1.45;;;0.50;;
29430;SDS011;16404;49.902;10.074;2023-12-22T05:57:09;0.30;;;0.30;;
29430;SDS011;16404;49.902;10.074;2023-12-22T05:59:53;0.30;;;0.30;;
29430;SDS011;16404;49.902;10.074;2023-12-22T06:02:38;0.40;;;0.40;;
29430;SDS011;16404;49.902;10.074;2023-12-22T06:05:23;0.50;;;0.50;;
29430;SDS011;16404;49.902;10.074;2023-12-22T06:08:07;2.35;;;0.50;;
29430;SDS011;16404;49.902;10.074;2023-12-22T06:10:53;1.63;;;0.70;;
29430;SDS011;16404;49.902;10.074;2023-12-22T06:13:38;2.35;;;0.63;;
29430;SDS011;16404;49.902;10.074;2023-12-22T06:16:22;1.83;;;0.55;;
29430;SDS011;16404;49.902;10.074;2023-12-22T06:19:07;2.72;;;0.90;;
29430;SDS011;16404;49.902;10.074;2023-12-22T06:21:51;3.58;;;0.70;;
29430;SDS011;16404;49.902;10.074;2023-12-22T06:24:36;3.83;;;0.90;;
29430;SDS011;16404;49.902;10.074;2023-12-22T06:27:21;5.20;;;1.13;;
29430;SDS011;16404;49.902;10.074;2023-12-22T06:30:05;2.85;;;1.33;;
29430;SDS011;16404;49.902;10.074;2023-12-22T06:32:51;4.53;;;1.10;;
29430;SDS011;16404;49.902;10.074;2023-12-22T06:35:35;6.45;;;1.67;;
29430;SDS011;16404;49.902;10.074;2023-12-22T06:38:21;6.57;;;1.58;;
29430;SDS011;16404;49.902;10.074;2023-12-22T06:41:05;7.55;;;1.50;;
29430;SDS011;16404;49.902;10.074;2023-12-22T06:43:50;9.18;;;1.90;;
29430;SDS011;16404;49.902;10.074;2023-12-22T06:49:19;10.98;;;2.25;;
29430;SDS011;16404;49.902;10.074;2023-12-22T06:52:04;6.25;;;2.00;;
29430;SDS011;16404;49.902;10.074;2023-12-22T06:54:49;9.63;;;2.20;;
29430;SDS011;16404;49.902;10.074;2023-12-22T06:57:33;8.65;;;2.35;;
29430;SDS011;16404;49.902;10.074;2023-12-22T07:00:18;8.88;;;2.22;;
29430;SDS011;16404;49.902;10.074;2023-12-22T07:03:03;8.98;;;2.05;;
29430;SDS011;16404;49.902;10.074;2023-12-22T07:05:47;9.60;;;2.20;;
29430;SDS011;16404;49.902;10.074;2023-12-22T07:11:17;5.40;;;1.70;;
29430;SDS011;16404;49.902;10.074;2023-12-22T07:14:02;5.78;;;1.45;;
29430;SDS011;16404;49.902;10.074;2023-12-22T07:16:47;4.18;;;1.60;;
29430;SDS011;16404;49.902;10.074;2023-12-22T07:19:31;8.63;;;2.30;;
29430;SDS011;16404;49.902;10.074;2023-12-22T07:22:16;7.72;;;2.05;;
29430;SDS011;16404;49.902;10.074;2023-12-22T07:25:01;5.38;;;1.63;;
29430;SDS011;16404;49.902;10.074;2023-12-22T07:27:45;12.10;;;3.38;;
29430;SDS011;16404;49.902;10.074;2023-12-22T07:30:30;10.10;;;4.22;;
29430;SDS011;16404;49.902;10.074;2023-12-22T07:33:14;6.80;;;2.03;;
29430;SDS011;16404;49.902;10.074;2023-12-22T07:35:59;7.68;;;2.15;;
29430;SDS011;16404;49.902;10.074;2023-12-22T07:41:28;4.00;;;1.52;;
29430;SDS011;16404;49.902;10.074;2023-12-22T07:44:13;3.47;;;1.20;;
29430;SDS011;16404;49.902;10.074;2023-12-22T07:46:58;3.20;;;2.00;;
29430;SDS011;16404;49.902;10.074;2023-12-22T07:49:44;3.65;;;1.83;;
29430;SDS011;16404;49.902;10.074;2023-12-22T07:52:29;3.35;;;2.45;;
29430;SDS011;16404;49.902;10.074;2023-12-22T07:55:13;3.22;;;1.30;;
29430;SDS011;16404;49.902;10.074;2023-12-22T07:57:58;7.88;;;1.95;;
29430;SDS011;16404;49.902;10.074;2023-12-22T08:00:42;4.53;;;1.67;;
29430;SDS011;16404;49.902;10.074;2023-12-22T08:03:27;3.47;;;1.83;;
29430;SDS011;16404;49.902;10.074;2023-12-22T08:06:12;8.05;;;2.30;;
29430;SDS011;16404;49.902;10.074;2023-12-22T08:08:57;7.47;;;4.20;;
29430;SDS011;16404;49.902;10.074;2023-12-22T08:11:42;10.75;;;2.58;;
29430;SDS011;16404;49.902;10.074;2023-12-22T08:14:30;9.07;;;2.30;;
29430;SDS011;16404;49.902;10.074;2023-12-22T08:17:14;6.22;;;3.53;;
29430;SDS011;16404;49.902;10.074;2023-12-22T08:19:59;5.32;;;2.05;;
29430;SDS011;16404;49.902;10.074;2023-12-22T08:22:43;10.60;;;3.80;;
29430;SDS011;16404;49.902;10.074;2023-12-22T08:25:29;4.30;;;1.98;;
29430;SDS011;16404;49.902;10.074;2023-12-22T08:28:14;4.50;;;1.60;;
29430;SDS011;16404;49.902;10.074;2023-12-22T08:30:59;6.38;;;2.00;;
29430;SDS011;16404;49.902;10.074;2023-12-22T08:33:43;8.77;;;1.60;;
29430;SDS011;16404;49.902;10.074;2023-12-22T08:36:29;7.88;;;1.60;;
29430;SDS011;16404;49.902;10.074;2023-12-22T08:39:13;4.72;;;1.42;;
29430;SDS011;16404;49.902;10.074;2023-12-22T08:41:58;10.05;;;1.98;;
29430;SDS011;16404;49.902;10.074;2023-12-22T08:44:43;4.68;;;1.48;;
29430;SDS011;16404;49.902;10.074;2023-12-22T08:47:27;13.65;;;2.10;;
29430;SDS011;16404;49.902;10.074;2023-12-22T08:50:12;13.70;;;2.05;;
29430;SDS011;16404;49.902;10.074;2023-12-22T08:52:57;8.95;;;2.10;;
29430;SDS011;16404;49.902;10.074;2023-12-22T08:55:41;9.73;;;2.05;;
29430;SDS011;16404;49.902;10.074;2023-12-22T08:58:26;10.80;;;1.88;;
29430;SDS011;16404;49.902;10.074;2023-12-22T09:01:14;7.88;;;1.60;;
29430;SDS011;16404;49.902;10.074;2023-12-22T09:03:59;7.47;;;1.48;;
29430;SDS011;16404;49.902;10.074;2023-12-22T09:06:44;6.55;;;1.60;;
29430;SDS011;16404;49.902;10.074;2023-12-22T09:09:28;5.18;;;1.30;;
29430;SDS011;16404;49.902;10.074;2023-12-22T09:12:13;7.20;;;1.52;;
29430;SDS011;16404;49.902;10.074;2023-12-22T09:14:57;5.28;;;1.35;;
29430;SDS011;16404;49.902;10.074;2023-12-22T09:17:42;4.22;;;1.00;;
29430;SDS011;16404;49.902;10.074;2023-12-22T09:20:26;3.78;;;1.10;;
29430;SDS011;16404;49.902;10.074;2023-12-22T09:23:12;4.82;;;1.02;;
29430;SDS011;16404;49.902;10.074;2023-12-22T09:25:57;6.60;;;1.38;;
29430;SDS011;16404;49.902;10.074;2023-12-22T09:31:26;3.47;;;1.08;;
29430;SDS011;16404;49.902;10.074;2023-12-22T09:34:10;5.93;;;1.50;;
29430;SDS011;16404;49.902;10.074;2023-12-22T09:36:55;10.02;;;3.05;;
29430;SDS011;16404;49.902;10.074;2023-12-22T09:39:40;5.68;;;2.10;;
29430;SDS011;16404;49.902;10.074;2023-12-22T09:42:25;7.72;;;2.63;;
29430;SDS011;16404;49.902;10.074;2023-12-22T09:45:13;7.75;;;2.10;;
29430;SDS011;16404;49.902;10.074;2023-12-22T09:48:02;6.85;;;2.38;;
29430;SDS011;16404;49.902;10.074;2023-12-22T09:50:48;5.30;;;3.13;;
29430;SDS011;16404;49.902;10.074;2023-12-22T09:53:33;8.82;;;2.35;;
29430;SDS011;16404;49.902;10.074;2023-12-22T09:56:19;15.23;;;4.45;;
29430;SDS011;16404;49.902;10.074;2023-12-22T09:59:05;11.68;;;2.65;;
29430;SDS011;16404;49.902;10.074;2023-12-22T10:01:49;9.73;;;2.40;;
29430;SDS011;16404;49.902;10.074;2023-12-22T10:04:36;14.30;;;2.20;;
29430;SDS011;16404;49.902;10.074;2023-12-22T10:07:21;14.52;;;2.40;;
29430;SDS011;16404;49.902;10.074;2023-12-22T10:12:51;10.48;;;2.97;;
29430;SDS011;16404;49.902;10.074;2023-12-22T10:15:37;11.00;;;2.67;;
29430;SDS011;16404;49.902;10.074;2023-12-22T10:18:26;12.52;;;2.40;;
29430;SDS011;16404;49.902;10.074;2023-12-22T10:21:11;9.57;;;2.00;;
29430;SDS011;16404;49.902;10.074;2023-12-22T10:23:55;13.10;;;2.70;;
29430;SDS011;16404;49.902;10.074;2023-12-22T10:29:24;12.23;;;1.83;;
29430;SDS011;16404;49.902;10.074;2023-12-22T10:32:09;17.27;;;5.07;;
29430;SDS011;16404;49.902;10.074;2023-12-22T10:34:54;8.68;;;2.33;;
29430;SDS011;16404;49.902;10.074;2023-12-22T10:37:40;8.45;;;2.05;;
29430;SDS011;16404;49.902;10.074;2023-12-22T10:40:25;5.03;;;1.48;;
29430;SDS011;16404;49.902;10.074;2023-12-22T10:43:10;6.32;;;1.73;;
29430;SDS011;16404;49.902;10.074;2023-12-22T10:45:54;4.88;;;2.00;;
29430;SDS011;16404;49.902;10.074;2023-12-22T10:48:39;5.03;;;1.90;;
29430;SDS011;16404;49.902;10.074;2023-12-22T10:51:24;4.35;;;1.60;;
29430;SDS011;16404;49.902;10.074;2023-12-22T10:54:09;2.75;;;1.15;;
29430;SDS011;16404;49.902;10.074;2023-12-22T10:56:57;5.50;;;1.30;;
29430;SDS011;16404;49.902;10.074;2023-12-22T10:59:44;3.85;;;1.67;;
29430;SDS011;16404;49.902;10.074;2023-12-22T11:02:30;3.10;;;1.30;;
29430;SDS011;16404;49.902;10.074;2023-12-22T11:05:18;5.32;;;1.20;;
29430;SDS011;16404;49.902;10.074;2023-12-22T11:08:04;4.45;;;1.02;;
29430;SDS011;16404;49.902;10.074;2023-12-22T11:10:53;5.15;;;1.10;;
29430;SDS011;16404;49.902;10.074;2023-12-22T11:13:42;8.35;;;2.60;;
29430;SDS011;16404;49.902;10.074;2023-12-22T11:16:28;6.90;;;1.67;;
29430;SDS011;16404;49.902;10.074;2023-12-22T11:19:14;5.05;;;1.80;;
29430;SDS011;16404;49.902;10.074;2023-12-22T11:21:59;6.18;;;1.92;;
29430;SDS011;16404;49.902;10.074;2023-12-22T11:24:46;4.68;;;2.00;;
29430;SDS011;16404;49.902;10.074;2023-12-22T11:27:33;7.03;;;1.98;;
29430;SDS011;16404;49.902;10.074;2023-12-22T11:30:18;4.07;;;1.60;;
29430;SDS011;16404;49.902;10.074;2023-12-22T11:35:48;7.65;;;1.98;;
29430;SDS011;16404;49.902;10.074;2023-12-22T11:38:33;7.05;;;2.25;;
29430;SDS011;16404;49.902;10.074;2023-12-22T11:41:22;10.82;;;1.98;;
29430;SDS011;16404;49.902;10.074;2023-12-22T11:44:11;8.90;;;2.70;;
29430;SDS011;16404;49.902;10.074;2023-12-22T11:47:08;9.63;;;2.35;;
29430;SDS011;16404;49.902;10.074;2023-12-22T11:49:53;14.23;;;3.08;;
29430;SDS011;16404;49.902;10.074;2023-12-22T11:52:39;13.57;;;3.55;;
29430;SDS011;16404;49.902;10.074;2023-12-22T11:55:55;15.45;;;4.00;;
29430;SDS011;16404;49.902;10.074;2023-12-22T11:58:45;8.60;;;2.80;;
29430;SDS011;16404;49.902;10.074;2023-12-22T12:01:38;10.02;;;3.40;;
29430;SDS011;16404;49.902;10.074;2023-12-22T12:04:23;14.70;;;3.13;;
29430;SDS011;16404;49.902;10.074;2023-12-22T12:13:16;23.35;;;4.28;;
29430;SDS011;16404;49.902;10.074;2023-12-22T12:16:07;14.07;;;4.75;;
29430;SDS011;16404;49.902;10.074;2023-12-22T12:18:51;14.88;;;3.28;;
29430;SDS011;16404;49.902;10.074;2023-12-22T12:21:39;17.45;;;4.55;;
29430;SDS011;16404;49.902;10.074;2023-12-22T12:24:24;11.32;;;3.40;;
29430;SDS011;16404;49.902;10.074;2023-12-22T12:27:09;19.90;;;4.38;;
29430;SDS011;16404;49.902;10.074;2023-12-22T12:29:54;16.50;;;3.22;;
29430;SDS011;16404;49.902;10.074;2023-12-22T12:32:39;12.85;;;2.80;;
29430;SDS011;16404;49.902;10.074;2023-12-22T12:35:28;22.65;;;5.43;;
29430;SDS011;16404;49.902;10.074;2023-12-22T12:38:13;26.60;;;6.50;;
29430;SDS011;16404;49.902;10.074;2023-12-22T12:41:01;20.85;;;5.00;;
29430;SDS011;16404;49.902;10.074;2023-12-22T12:43:49;22.55;;;7.03;;
29430;SDS011;16404;49.902;10.074;2023-12-22T12:46:36;13.93;;;4.07;;
29430;SDS011;16404;49.902;10.074;2023-12-22T12:49:21;26.17;;;4.32;;
29430;SDS011;16404;49.902;10.074;2023-12-22T12:52:13;20.23;;;4.75;;
29430;SDS011;16404;49.902;10.074;2023-12-22T12:54:58;16.30;;;3.40;;
29430;SDS011;16404;49.902;10.074;2023-12-22T12:57:44;15.73;;;3.00;;
29430;SDS011;16404;49.902;10.074;2023-12-22T13:00:32;18.80;;;3.00;;
29430;SDS011;16404;49.902;10.074;2023-12-22T13:03:19;11.63;;;3.10;;
29430;SDS011;16404;49.902;10.074;2023-12-22T13:06:07;13.10;;;2.95;;
29430;SDS011;16404;49.902;10.074;2023-12-22T13:08:52;17.95;;;2.85;;
29430;SDS011;16404;49.902;10.074;2023-12-22T13:14:22;12.98;;;2.63;;
29430;SDS011;16404;49.902;10.074;2023-12-22T13:17:10;10.18;;;2.22;;
29430;SDS011;16404;49.902;10.074;2023-12-22T13:19:55;13.32;;;2.90;;
29430;SDS011;16404;49.902;10.074;2023-12-22T13:22:40;16.17;;;2.40;;
29430;SDS011;16404;49.902;10.074;2023-12-22T13:25:24;9.98;;;2.30;;
29430;SDS011;16404;49.902;10.074;2023-12-22T13:28:09;9.40;;;2.53;;
29430;SDS011;16404;49.902;10.074;2023-12-22T13:30:54;7.70;;;2.17;;
29430;SDS011;16404;49.902;10.074;2023-12-22T13:33:39;10.05;;;1.90;;
29430;SDS011;16404;49.902;10.074;2023-12-22T13:36:24;8.48;;;1.70;;
29430;SDS011;16404;49.902;10.074;2023-12-22T13:41:55;5.30;;;1.73;;
29430;SDS011;16404;49.902;10.074;2023-12-22T13:44:44;5.47;;;1.50;;
29430;SDS011;16404;49.902;10.074;2023-12-22T13:47:30;5.70;;;1.42;;
29430;SDS011;16404;49.902;10.074;2023-12-22T13:50:15;3.38;;;1.50;;
29430;SDS011;16404;49.902;10.074;2023-12-22T13:55:53;2.53;;;1.60;;
29430;SDS011;16404;49.902;10.074;2023-12-22T13:58:47;5.78;;;2.00;;
29430;SDS011;16404;49.902;10.074;2023-12-22T14:01:32;5.32;;;1.88;;
29430;SDS011;16404;49.902;10.074;2023-12-22T14:04:17;1.88;;;1.10;;
29430;SDS011;16404;49.902;10.074;2023-12-22T14:07:01;5.50;;;1.38;;
29430;SDS011;16404;49.902;10.074;2023-12-22T14:09:46;1.90;;;1.40;;
29430;SDS011;16404;49.902;10.074;2023-12-22T14:12:31;2.95;;;1.35;;
29430;SDS011;16404;49.902;10.074;2023-12-22T14:15:15;5.22;;;2.50;;
29430;SDS011;16404;49.902;10.074;2023-12-22T14:18:01;5.88;;;3.78;;
29430;SDS011;16404;49.902;10.074;2023-12-22T14:20:46;2.38;;;1.70;;
29430;SDS011;16404;49.902;10.074;2023-12-22T14:23:30;3.25;;;1.70;;
29430;SDS011;16404;49.902;10.074;2023-12-22T14:26:15;4.57;;;2.75;;
29430;SDS011;16404;49.902;10.074;2023-12-22T14:29:00;1.95;;;1.30;;
29430;SDS011;16404;49.902;10.074;2023-12-22T14:31:45;5.03;;;2.15;;
29430;SDS011;16404;49.902;10.074;2023-12-22T14:34:30;2.95;;;1.58;;
29430;SDS011;16404;49.902;10.074;2023-12-22T14:37:16;2.35;;;1.65;;
29430;SDS011;16404;49.902;10.074;2023-12-22T14:40:01;1.20;;;1.10;;
29430;SDS011;16404;49.902;10.074;2023-12-22T14:42:45;2.88;;;1.42;;
29430;SDS011;16404;49.902;10.074;2023-12-22T14:45:30;2.33;;;1.20;;
29430;SDS011;16404;49.902;10.074;2023-12-22T14:48:14;3.80;;;1.70;;
29430;SDS011;16404;49.902;10.074;2023-12-22T14:50:59;5.55;;;1.70;;
29430;SDS011;16404;49.902;10.074;2023-12-22T14:53:43;2.75;;;1.25;;
29430;SDS011;16404;49.902;10.074;2023-12-22T14:56:28;2.92;;;1.60;;
29430;SDS011;16404;49.902;10.074;2023-12-22T14:59:13;3.47;;;1.23;;
29430;SDS011;16404;49.902;10.074;2023-12-22T15:01:58;2.42;;;1.20;;
29430;SDS011;16404;49.902;10.074;2023-12-22T15:04:43;2.85;;;1.08;;
29430;SDS011;16404;49.902;10.074;2023-12-22T15:07:28;2.67;;;0.98;;
29430;SDS011;16404;49.902;10.074;2023-12-22T15:10:12;2.13;;;1.20;;
29430;SDS011;16404;49.902;10.074;2023-12-22T15:12:57;2.25;;;1.20;;
29430;SDS011;16404;49.902;10.074;2023-12-22T15:15:42;3.05;;;1.30;;
29430;SDS011;16404;49.902;10.074;2023-12-22T15:18:26;1.73;;;0.90;;
29430;SDS011;16404;49.902;10.074;2023-12-22T15:21:18;2.45;;;1.10;;
29430;SDS011;16404;49.902;10.074;2023-12-22T15:24:07;2.60;;;1.20;;
29430;SDS011;16404;49.902;10.074;2023-12-22T15:26:52;2.40;;;1.30;;
29430;SDS011;16404;49.902;10.074;2023-12-22T15:29:36;4.32;;;1.48;;
29430;SDS011;16404;49.902;10.074;2023-12-22T15:32:21;3.90;;;1.23;;
29430;SDS011;16404;49.902;10.074;2023-12-22T15:35:06;5.30;;;1.50;;
29430;SDS011;16404;49.902;10.074;2023-12-22T15:37:51;1.30;;;1.20;;
29430;SDS011;16404;49.902;10.074;2023-12-22T15:40:36;2.05;;;1.23;;
29430;SDS011;16404;49.902;10.074;2023-12-22T15:43:21;4.20;;;1.73;;
29430;SDS011;16404;49.902;10.074;2023-12-22T15:46:05;3.67;;;1.33;;
29430;SDS011;16404;49.902;10.074;2023-12-22T15:48:50;3.17;;;1.75;;
29430;SDS011;16404;49.902;10.074;2023-12-22T15:51:35;2.15;;;1.50;;
29430;SDS011;16404;49.902;10.074;2023-12-22T15:54:20;1.45;;;1.25;;
29430;SDS011;16404;49.902;10.074;2023-12-22T15:57:04;4.35;;;2.97;;
29430;SDS011;16404;49.902;10.074;2023-12-22T15:59:49;3.22;;;1.45;;
29430;SDS011;16404;49.902;10.074;2023-12-22T16:02:33;2.10;;;1.20;;
29430;SDS011;16404;49.902;10.074;2023-12-22T16:05:22;7.15;;;4.82;;
29430;SDS011;16404;49.902;10.074;2023-12-22T16:08:06;10.98;;;6.60;;
29430;SDS011;16404;49.902;10.074;2023-12-22T16:10:51;1.48;;;0.82;;
29430;SDS011;16404;49.902;10.074;2023-12-22T16:13:36;1.90;;;1.80;;
29430;SDS011;16404;49.902;10.074;2023-12-22T16:16:20;1.63;;;1.40;;
29430;SDS011;16404;49.902;10.074;2023-12-22T16:19:05;3.42;;;1.40;;
29430;SDS011;16404;49.902;10.074;2023-12-22T16:21:49;3.42;;;1.90;;
29430;SDS011;16404;49.902;10.074;2023-12-22T16:24:40;6.72;;;2.40;;
29430;SDS011;16404;49.902;10.074;2023-12-22T16:27:24;1.52;;;1.40;;
29430;SDS011;16404;49.902;10.074;2023-12-22T16:30:09;1.73;;;1.50;;
29430;SDS011;16404;49.902;10.074;2023-12-22T16:32:53;2.95;;;2.28;;
29430;SDS011;16404;49.902;10.074;2023-12-22T16:35:38;1.15;;;1.00;;
29430;SDS011;16404;49.902;10.074;2023-12-22T16:38:23;2.35;;;1.48;;
29430;SDS011;16404;49.902;10.074;2023-12-22T16:41:08;1.27;;;1.00;;
29430;SDS011;16404;49.902;10.074;2023-12-22T16:43:53;2.30;;;1.67;;
29430;SDS011;16404;49.902;10.074;2023-12-22T16:46:37;3.30;;;1.58;;
29430;SDS011;16404;49.902;10.074;2023-12-22T16:49:22;1.60;;;1.50;;
29430;SDS011;16404;49.902;10.074;2023-12-22T16:52:06;4.18;;;2.80;;
29430;SDS011;16404;49.902;10.074;2023-12-22T16:54:51;3.72;;;1.90;;
29430;SDS011;16404;49.902;10.074;2023-12-22T16:57:36;3.35;;;2.45;;
29430;SDS011;16404;49.902;10.074;2023-12-22T17:00:21;4.13;;;2.58;;
29430;SDS011;16404;49.902;10.074;2023-12-22T17:03:06;6.13;;;5.03;;
29430;SDS011;16404;49.902;10.074;2023-12-22T17:05:51;2.75;;;1.92;;
29430;SDS011;16404;49.902;10.074;2023-12-22T17:08:35;4.32;;;2.28;;
29430;SDS011;16404;49.902;10.074;2023-12-22T17:11:20;6.32;;;3.35;;